AIC2439 VIDP-VABB
Flight info
| Callsign | AIC2439 |
|---|---|
| Flight time | 1h 34m |
| Altitude | 40000 |
| Route | DUDUM6H DUDUM Q2 AKTIV IGBAN2A |
| Aircraft | B789/H-SDE1E2E3FGHIJ2J3J4J5M1RWXY/LB1D1 |
Departure
| Time | 2026-05-05 08:45 |
|---|---|
| Airport | Indira Gandhi International Airport (VIDP) |
Arrival
| Time | 2026-05-05 10:20 |
|---|---|
| Airport | Chhatrapati Shivaji Maharaj International Airport (VABB) |
| Time | Latitude | Longitude | Altitude | Speed | Heading |
|---|---|---|---|---|---|
| 2026-05-05 08:08 | 28.55376 | 77.08000 | 756 ft | 0 kts | 329° |
| 2026-05-05 08:32 | 28.55366 | 77.08006 | 751 ft | 4 kts | 329° |
| 2026-05-05 08:33 | 28.55342 | 77.08023 | 751 ft | 4 kts | 328° |
| 2026-05-05 08:33 | 28.55323 | 77.08038 | 751 ft | 3 kts | 315° |
| 2026-05-05 08:33 | 28.55314 | 77.08052 | 753 ft | 3 kts | 273° |
| 2026-05-05 08:33 | 28.55317 | 77.08067 | 751 ft | 2 kts | 242° |
| 2026-05-05 08:34 | 28.55322 | 77.08078 | 751 ft | 1 kts | 241° |
| 2026-05-05 08:35 | 28.55313 | 77.08065 | 751 ft | 5 kts | 230° |
| 2026-05-05 08:35 | 28.55274 | 77.08030 | 754 ft | 10 kts | 216° |
| 2026-05-05 08:36 | 28.55209 | 77.07956 | 754 ft | 16 kts | 233° |
| 2026-05-05 08:36 | 28.55129 | 77.07893 | 751 ft | 12 kts | 195° |
| 2026-05-05 08:36 | 28.55056 | 77.07868 | 755 ft | 10 kts | 207° |
| 2026-05-05 08:36 | 28.55034 | 77.07831 | 753 ft | 8 kts | 248° |
| 2026-05-05 08:37 | 28.55040 | 77.07765 | 754 ft | 6 kts | 284° |
| 2026-05-05 08:37 | 28.55053 | 77.07710 | 772 ft | 8 kts | 284° |
| 2026-05-05 08:37 | 28.55070 | 77.07638 | 753 ft | 11 kts | 285° |
| 2026-05-05 08:37 | 28.55084 | 77.07580 | 753 ft | 12 kts | 285° |
| 2026-05-05 08:38 | 28.55108 | 77.07476 | 755 ft | 15 kts | 284° |
| 2026-05-05 08:38 | 28.55135 | 77.07357 | 754 ft | 17 kts | 284° |
| 2026-05-05 08:38 | 28.55165 | 77.07223 | 757 ft | 18 kts | 284° |
| 2026-05-05 08:38 | 28.55199 | 77.07075 | 755 ft | 19 kts | 285° |
| 2026-05-05 08:39 | 28.55175 | 77.06975 | 754 ft | 12 kts | 211° |
| 2026-05-05 08:39 | 28.55124 | 77.06957 | 751 ft | 0 kts | 193° |
| 2026-05-05 08:42 | 28.55120 | 77.06956 | 751 ft | 2 kts | 193° |
| 2026-05-05 08:42 | 28.55097 | 77.06950 | 753 ft | 5 kts | 193° |
| 2026-05-05 08:42 | 28.55052 | 77.06939 | 750 ft | 8 kts | 192° |
| 2026-05-05 08:42 | 28.54995 | 77.06948 | 752 ft | 8 kts | 151° |
| 2026-05-05 08:43 | 28.54978 | 77.06985 | 753 ft | 0 kts | 104° |
| 2026-05-05 08:44 | 28.54971 | 77.07015 | 752 ft | 15 kts | 104° |
| 2026-05-05 08:44 | 28.54887 | 77.07409 | 756 ft | 91 kts | 103° |
| 2026-05-05 08:45 | 28.54674 | 77.08402 | 756 ft | 163 kts | 104° |
| 2026-05-05 08:45 | 28.54374 | 77.09768 | 1304 ft | 178 kts | 103° |
| 2026-05-05 08:45 | 28.54087 | 77.11069 | 2564 ft | 156 kts | 103° |
| 2026-05-05 08:45 | 28.53799 | 77.12344 | 3127 ft | 180 kts | 105° |
| 2026-05-05 08:46 | 28.53350 | 77.13759 | 3604 ft | 206 kts | 123° |
| 2026-05-05 08:46 | 28.52074 | 77.14666 | 4067 ft | 236 kts | 168° |
| 2026-05-05 08:46 | 28.50400 | 77.14352 | 4735 ft | 254 kts | 207° |
| 2026-05-05 08:46 | 28.48933 | 77.13242 | 5771 ft | 254 kts | 215° |
| 2026-05-05 08:47 | 28.47356 | 77.12128 | 6473 ft | 277 kts | 208° |
| 2026-05-05 08:47 | 28.45547 | 77.11229 | 6889 ft | 287 kts | 199° |
| 2026-05-05 08:47 | 28.43578 | 77.10775 | 6902 ft | 286 kts | 187° |
| 2026-05-05 08:47 | 28.41636 | 77.10619 | 6909 ft | 282 kts | 185° |
| 2026-05-05 08:48 | 28.39674 | 77.10445 | 6911 ft | 281 kts | 188° |
| 2026-05-05 08:48 | 28.37723 | 77.10154 | 6907 ft | 281 kts | 189° |
| 2026-05-05 08:48 | 28.35776 | 77.09848 | 6905 ft | 281 kts | 189° |
| 2026-05-05 08:48 | 28.33845 | 77.09579 | 6903 ft | 282 kts | 188° |
| 2026-05-05 08:49 | 28.31907 | 77.09193 | 6892 ft | 279 kts | 203° |
| 2026-05-05 08:49 | 28.30294 | 77.07977 | 7137 ft | 283 kts | 226° |
| 2026-05-05 08:49 | 28.28938 | 77.06477 | 8522 ft | 273 kts | 226° |
| 2026-05-05 08:49 | 28.27551 | 77.04943 | 9597 ft | 280 kts | 227° |
| 2026-05-05 08:50 | 28.26146 | 77.03364 | 10503 ft | 293 kts | 227° |
| 2026-05-05 08:50 | 28.24647 | 77.01681 | 11043 ft | 319 kts | 227° |
| 2026-05-05 08:50 | 28.22988 | 76.99833 | 11699 ft | 342 kts | 226° |
| 2026-05-05 08:50 | 28.21279 | 76.97938 | 12823 ft | 345 kts | 226° |
| 2026-05-05 08:51 | 28.19547 | 76.96011 | 13801 ft | 351 kts | 226° |
| 2026-05-05 08:51 | 28.17805 | 76.94070 | 14705 ft | 356 kts | 226° |
| 2026-05-05 08:51 | 28.16025 | 76.92087 | 15607 ft | 362 kts | 226° |
| 2026-05-05 08:51 | 28.14225 | 76.90086 | 16463 ft | 367 kts | 226° |
| 2026-05-05 08:52 | 28.12384 | 76.88041 | 17343 ft | 373 kts | 226° |
| 2026-05-05 08:52 | 28.10511 | 76.85961 | 18198 ft | 378 kts | 226° |
| 2026-05-05 08:52 | 28.08633 | 76.83874 | 18943 ft | 383 kts | 226° |
| 2026-05-05 08:52 | 28.06715 | 76.81747 | 19684 ft | 388 kts | 226° |
| 2026-05-05 08:53 | 28.04765 | 76.79584 | 20406 ft | 393 kts | 226° |
| 2026-05-05 08:53 | 28.02797 | 76.77403 | 21110 ft | 398 kts | 226° |
| 2026-05-05 08:53 | 28.00801 | 76.75192 | 21797 ft | 403 kts | 226° |
| 2026-05-05 08:53 | 27.98780 | 76.72953 | 22464 ft | 408 kts | 226° |
| 2026-05-05 08:54 | 27.96763 | 76.70720 | 23131 ft | 413 kts | 226° |
| 2026-05-05 08:54 | 27.94692 | 76.68431 | 23691 ft | 418 kts | 226° |
| 2026-05-05 08:54 | 27.92596 | 76.66115 | 24280 ft | 421 kts | 226° |
| 2026-05-05 08:54 | 27.90513 | 76.63813 | 24865 ft | 423 kts | 226° |
| 2026-05-05 08:55 | 27.88387 | 76.61465 | 25443 ft | 426 kts | 226° |
| 2026-05-05 08:55 | 27.86256 | 76.59113 | 26014 ft | 429 kts | 227° |
| 2026-05-05 08:55 | 27.84128 | 76.56767 | 26569 ft | 431 kts | 227° |
| 2026-05-05 08:55 | 27.81966 | 76.54384 | 27116 ft | 434 kts | 227° |
| 2026-05-05 08:56 | 27.79736 | 76.52068 | 27628 ft | 439 kts | 219° |
| 2026-05-05 08:56 | 27.77198 | 76.50116 | 28132 ft | 444 kts | 217° |
| 2026-05-05 08:56 | 27.74613 | 76.48165 | 28639 ft | 447 kts | 217° |
| 2026-05-05 08:56 | 27.72014 | 76.46204 | 29147 ft | 450 kts | 218° |
| 2026-05-05 08:57 | 27.69438 | 76.44264 | 29631 ft | 453 kts | 218° |
| 2026-05-05 08:57 | 27.66809 | 76.42287 | 30079 ft | 456 kts | 218° |
| 2026-05-05 08:57 | 27.64162 | 76.40295 | 30471 ft | 458 kts | 218° |
| 2026-05-05 08:57 | 27.61479 | 76.38277 | 30853 ft | 460 kts | 218° |
| 2026-05-05 08:58 | 27.58836 | 76.36291 | 31229 ft | 463 kts | 218° |
| 2026-05-05 08:58 | 27.56133 | 76.34263 | 31597 ft | 465 kts | 218° |
| 2026-05-05 08:58 | 27.53426 | 76.32230 | 31958 ft | 468 kts | 218° |
| 2026-05-05 08:58 | 27.50690 | 76.30284 | 32300 ft | 472 kts | 216° |
| 2026-05-05 08:59 | 27.47871 | 76.28361 | 32624 ft | 474 kts | 217° |
| 2026-05-05 08:59 | 27.45049 | 76.26405 | 32910 ft | 477 kts | 217° |
| 2026-05-05 08:59 | 27.42216 | 76.24450 | 33257 ft | 479 kts | 217° |
| 2026-05-05 08:59 | 27.39350 | 76.22495 | 33564 ft | 481 kts | 217° |
| 2026-05-05 09:00 | 27.36481 | 76.20535 | 33879 ft | 484 kts | 217° |
| 2026-05-05 09:00 | 27.33592 | 76.18552 | 34157 ft | 485 kts | 217° |
| 2026-05-05 09:00 | 27.30743 | 76.16598 | 34492 ft | 485 kts | 217° |
| 2026-05-05 09:00 | 27.27851 | 76.14622 | 34832 ft | 485 kts | 217° |
| 2026-05-05 09:01 | 27.24948 | 76.12639 | 35192 ft | 485 kts | 218° |
| 2026-05-05 09:01 | 27.22070 | 76.10672 | 35574 ft | 484 kts | 218° |
| 2026-05-05 09:01 | 27.19216 | 76.08721 | 35908 ft | 484 kts | 218° |
| 2026-05-05 09:01 | 27.16338 | 76.06758 | 36228 ft | 484 kts | 218° |
| 2026-05-05 09:02 | 27.13456 | 76.04793 | 36559 ft | 484 kts | 218° |
| 2026-05-05 09:02 | 27.10573 | 76.02828 | 36910 ft | 483 kts | 218° |
| 2026-05-05 09:02 | 27.07696 | 76.00867 | 37240 ft | 483 kts | 218° |
| 2026-05-05 09:02 | 27.04809 | 75.98903 | 37581 ft | 483 kts | 218° |
| 2026-05-05 09:03 | 27.01971 | 75.96971 | 37924 ft | 482 kts | 218° |
| 2026-05-05 09:03 | 26.99100 | 75.95019 | 38261 ft | 482 kts | 218° |
| 2026-05-05 09:03 | 26.96234 | 75.93072 | 38579 ft | 481 kts | 218° |
| 2026-05-05 09:03 | 26.93367 | 75.91124 | 38856 ft | 481 kts | 218° |
| 2026-05-05 09:04 | 26.90504 | 75.89181 | 39121 ft | 480 kts | 218° |
| 2026-05-05 09:04 | 26.87638 | 75.87237 | 39374 ft | 480 kts | 218° |
| 2026-05-05 09:04 | 26.84818 | 75.85325 | 39624 ft | 479 kts | 218° |
| 2026-05-05 09:04 | 26.81861 | 75.83540 | 39854 ft | 486 kts | 209° |
| 2026-05-05 09:05 | 26.78686 | 75.82139 | 39899 ft | 494 kts | 208° |
| 2026-05-05 09:05 | 26.72258 | 75.79431 | 39901 ft | 491 kts | 207° |
| 2026-05-05 09:06 | 26.65881 | 75.76717 | 39898 ft | 488 kts | 208° |
| 2026-05-05 09:06 | 26.59530 | 75.74031 | 39899 ft | 488 kts | 207° |
| 2026-05-05 09:07 | 26.53217 | 75.71359 | 39899 ft | 487 kts | 208° |
| 2026-05-05 09:07 | 26.46854 | 75.68671 | 39886 ft | 487 kts | 207° |
| 2026-05-05 09:08 | 26.40541 | 75.66007 | 39886 ft | 487 kts | 207° |
| 2026-05-05 09:08 | 26.34180 | 75.63325 | 39887 ft | 486 kts | 207° |
| 2026-05-05 09:09 | 26.27850 | 75.60660 | 39889 ft | 486 kts | 207° |
| 2026-05-05 09:09 | 26.21544 | 75.58008 | 39894 ft | 487 kts | 207° |
| 2026-05-05 09:10 | 26.15195 | 75.55341 | 39893 ft | 487 kts | 207° |
| 2026-05-05 09:10 | 26.08837 | 75.52674 | 39888 ft | 487 kts | 207° |
| 2026-05-05 09:11 | 26.02533 | 75.50032 | 39891 ft | 488 kts | 207° |
| 2026-05-05 09:11 | 25.96170 | 75.47369 | 39897 ft | 487 kts | 207° |
| 2026-05-05 09:12 | 25.89818 | 75.44712 | 39893 ft | 488 kts | 207° |
| 2026-05-05 09:12 | 25.83452 | 75.42072 | 39896 ft | 488 kts | 207° |
| 2026-05-05 09:13 | 25.77088 | 75.39461 | 39891 ft | 487 kts | 207° |
| 2026-05-05 09:13 | 25.70768 | 75.36853 | 39894 ft | 486 kts | 207° |
| 2026-05-05 09:14 | 25.64420 | 75.34249 | 39895 ft | 485 kts | 207° |
| 2026-05-05 09:14 | 25.58094 | 75.31649 | 39890 ft | 485 kts | 207° |
| 2026-05-05 09:15 | 25.51773 | 75.29058 | 39889 ft | 486 kts | 207° |
| 2026-05-05 09:15 | 25.45421 | 75.26455 | 39895 ft | 487 kts | 207° |
| 2026-05-05 09:16 | 25.39037 | 75.23844 | 39903 ft | 489 kts | 207° |
| 2026-05-05 09:16 | 25.32657 | 75.21237 | 39895 ft | 489 kts | 207° |
| 2026-05-05 09:17 | 25.26282 | 75.18635 | 39894 ft | 487 kts | 207° |
| 2026-05-05 09:17 | 25.19949 | 75.16052 | 39889 ft | 486 kts | 207° |
| 2026-05-05 09:18 | 25.13600 | 75.13466 | 39892 ft | 485 kts | 207° |
| 2026-05-05 09:18 | 25.08324 | 75.11318 | 39894 ft | 486 kts | 207° |
| 2026-05-05 09:19 | 25.01985 | 75.08742 | 39889 ft | 487 kts | 207° |
| 2026-05-05 09:19 | 24.95636 | 75.06164 | 39896 ft | 486 kts | 207° |
| 2026-05-05 09:20 | 24.89266 | 75.03580 | 39890 ft | 486 kts | 207° |
| 2026-05-05 09:20 | 24.82933 | 75.01015 | 39890 ft | 486 kts | 207° |
| 2026-05-05 09:21 | 24.76556 | 74.98433 | 39894 ft | 486 kts | 207° |
| 2026-05-05 09:21 | 24.70239 | 74.95880 | 39893 ft | 486 kts | 207° |
| 2026-05-05 09:22 | 24.63878 | 74.93311 | 39898 ft | 485 kts | 207° |
| 2026-05-05 09:22 | 24.57565 | 74.90765 | 39892 ft | 485 kts | 207° |
| 2026-05-05 09:23 | 24.51207 | 74.88204 | 39897 ft | 486 kts | 207° |
| 2026-05-05 09:23 | 24.44845 | 74.85646 | 39906 ft | 486 kts | 207° |
| 2026-05-05 09:24 | 24.38515 | 74.83102 | 39895 ft | 486 kts | 207° |
| 2026-05-05 09:24 | 24.32162 | 74.80552 | 39900 ft | 486 kts | 207° |
| 2026-05-05 09:25 | 24.25795 | 74.77999 | 39901 ft | 485 kts | 206° |
| 2026-05-05 09:25 | 24.19487 | 74.75473 | 39903 ft | 485 kts | 206° |
| 2026-05-05 09:26 | 24.13130 | 74.72929 | 39892 ft | 485 kts | 206° |
| 2026-05-05 09:26 | 24.06778 | 74.70391 | 39902 ft | 485 kts | 206° |
| 2026-05-05 09:27 | 24.00436 | 74.67858 | 39894 ft | 485 kts | 206° |
| 2026-05-05 09:27 | 23.94138 | 74.65327 | 39890 ft | 484 kts | 206° |
| 2026-05-05 09:28 | 23.87799 | 74.62791 | 39890 ft | 484 kts | 206° |
| 2026-05-05 09:28 | 23.81453 | 74.60250 | 39887 ft | 486 kts | 206° |
| 2026-05-05 09:29 | 23.75121 | 74.57720 | 39883 ft | 487 kts | 206° |
| 2026-05-05 09:29 | 23.68742 | 74.55173 | 39879 ft | 487 kts | 206° |
| 2026-05-05 09:30 | 23.62414 | 74.52649 | 39876 ft | 486 kts | 206° |
| 2026-05-05 09:30 | 23.56063 | 74.50119 | 39872 ft | 484 kts | 206° |
| 2026-05-05 09:31 | 23.49732 | 74.47598 | 39871 ft | 484 kts | 206° |
| 2026-05-05 09:31 | 23.43392 | 74.45077 | 39868 ft | 485 kts | 205° |
| 2026-05-05 09:32 | 23.37075 | 74.42568 | 39869 ft | 486 kts | 206° |
| 2026-05-05 09:32 | 23.30701 | 74.40038 | 39867 ft | 487 kts | 205° |
| 2026-05-05 09:33 | 23.24353 | 74.37522 | 39865 ft | 487 kts | 205° |
| 2026-05-05 09:33 | 23.17978 | 74.34998 | 39854 ft | 486 kts | 205° |
| 2026-05-05 09:34 | 23.11657 | 74.32497 | 39855 ft | 484 kts | 205° |
| 2026-05-05 09:34 | 23.05323 | 74.29994 | 39857 ft | 484 kts | 205° |
| 2026-05-05 09:35 | 22.98985 | 74.27492 | 39852 ft | 485 kts | 205° |
| 2026-05-05 09:35 | 22.89476 | 74.23743 | 39850 ft | 487 kts | 205° |
| 2026-05-05 09:36 | 22.83096 | 74.21231 | 39848 ft | 487 kts | 205° |
| 2026-05-05 09:36 | 22.76716 | 74.18721 | 39846 ft | 487 kts | 205° |
| 2026-05-05 09:37 | 22.70357 | 74.16221 | 39846 ft | 486 kts | 205° |
| 2026-05-05 09:37 | 22.63982 | 74.13719 | 39843 ft | 486 kts | 205° |
| 2026-05-05 09:38 | 22.57656 | 74.11242 | 39836 ft | 486 kts | 205° |
| 2026-05-05 09:38 | 22.51294 | 74.08758 | 39835 ft | 486 kts | 205° |
| 2026-05-05 09:39 | 22.44918 | 74.06267 | 39837 ft | 486 kts | 205° |
| 2026-05-05 09:39 | 22.38536 | 74.03779 | 39833 ft | 487 kts | 205° |
| 2026-05-05 09:40 | 22.32200 | 74.01309 | 39833 ft | 488 kts | 204° |
| 2026-05-05 09:40 | 22.28361 | 73.99815 | 39835 ft | 488 kts | 204° |
| 2026-05-05 09:41 | 22.23554 | 73.97944 | 39835 ft | 488 kts | 204° |
| 2026-05-05 09:42 | 22.17190 | 73.95470 | 39831 ft | 488 kts | 204° |
| 2026-05-05 09:42 | 22.10799 | 73.92987 | 39831 ft | 488 kts | 204° |
| 2026-05-05 09:43 | 22.04422 | 73.90513 | 39835 ft | 488 kts | 204° |
| 2026-05-05 09:43 | 21.97997 | 73.88022 | 39836 ft | 489 kts | 204° |
| 2026-05-05 09:44 | 21.91619 | 73.85553 | 39839 ft | 488 kts | 204° |
| 2026-05-05 09:44 | 21.85203 | 73.83070 | 39838 ft | 487 kts | 204° |
| 2026-05-05 09:45 | 21.78860 | 73.80618 | 39840 ft | 487 kts | 204° |
| 2026-05-05 09:45 | 21.72455 | 73.78145 | 39844 ft | 486 kts | 204° |
| 2026-05-05 09:46 | 21.66076 | 73.75684 | 39844 ft | 488 kts | 204° |
| 2026-05-05 09:46 | 21.59695 | 73.73224 | 39841 ft | 488 kts | 203° |
| 2026-05-05 09:47 | 21.53310 | 73.70765 | 39842 ft | 488 kts | 203° |
| 2026-05-05 09:47 | 21.46896 | 73.68298 | 39835 ft | 487 kts | 203° |
| 2026-05-05 09:48 | 21.40550 | 73.65859 | 39836 ft | 486 kts | 203° |
| 2026-05-05 09:48 | 21.34172 | 73.63409 | 39829 ft | 486 kts | 203° |
| 2026-05-05 09:49 | 21.30980 | 73.62185 | 39532 ft | 485 kts | 203° |
| 2026-05-05 09:49 | 21.27787 | 73.60959 | 38873 ft | 488 kts | 203° |
| 2026-05-05 09:49 | 21.24615 | 73.59743 | 38299 ft | 489 kts | 203° |
| 2026-05-05 09:49 | 21.21405 | 73.58513 | 37691 ft | 489 kts | 203° |
| 2026-05-05 09:50 | 21.18217 | 73.57294 | 37368 ft | 482 kts | 203° |
| 2026-05-05 09:50 | 21.15052 | 73.56082 | 36894 ft | 480 kts | 203° |
| 2026-05-05 09:50 | 21.11910 | 73.55009 | 36450 ft | 478 kts | 201° |
| 2026-05-05 09:50 | 21.08747 | 73.53946 | 36040 ft | 475 kts | 201° |
| 2026-05-05 09:51 | 21.05612 | 73.52864 | 35623 ft | 472 kts | 201° |
| 2026-05-05 09:51 | 21.02472 | 73.51802 | 35219 ft | 469 kts | 201° |
| 2026-05-05 09:51 | 20.99349 | 73.50766 | 34812 ft | 467 kts | 201° |
| 2026-05-05 09:51 | 20.96282 | 73.49740 | 34418 ft | 464 kts | 201° |
| 2026-05-05 09:52 | 20.93198 | 73.48694 | 34027 ft | 461 kts | 201° |
| 2026-05-05 09:52 | 20.90173 | 73.47674 | 33623 ft | 458 kts | 201° |
| 2026-05-05 09:52 | 20.87137 | 73.46658 | 33199 ft | 455 kts | 201° |
| 2026-05-05 09:52 | 20.84121 | 73.45649 | 32811 ft | 452 kts | 201° |
| 2026-05-05 09:53 | 20.81132 | 73.44644 | 32387 ft | 449 kts | 201° |
| 2026-05-05 09:53 | 20.78164 | 73.43646 | 31981 ft | 446 kts | 201° |
| 2026-05-05 09:53 | 20.75235 | 73.42665 | 31588 ft | 443 kts | 201° |
| 2026-05-05 09:53 | 20.72313 | 73.41687 | 31237 ft | 438 kts | 201° |
| 2026-05-05 09:54 | 20.69396 | 73.40709 | 30760 ft | 438 kts | 201° |
| 2026-05-05 09:54 | 20.66485 | 73.39732 | 30273 ft | 438 kts | 201° |
| 2026-05-05 09:54 | 20.63569 | 73.38755 | 29760 ft | 438 kts | 201° |
| 2026-05-05 09:54 | 20.60662 | 73.37784 | 29253 ft | 436 kts | 201° |
| 2026-05-05 09:55 | 20.57803 | 73.36828 | 28782 ft | 434 kts | 201° |
| 2026-05-05 09:55 | 20.54916 | 73.35862 | 28287 ft | 432 kts | 201° |
| 2026-05-05 09:55 | 20.52051 | 73.34904 | 27828 ft | 430 kts | 201° |
| 2026-05-05 09:55 | 20.49192 | 73.33949 | 27357 ft | 428 kts | 201° |
| 2026-05-05 09:56 | 20.46388 | 73.33013 | 26890 ft | 426 kts | 201° |
| 2026-05-05 09:56 | 20.43550 | 73.32065 | 26436 ft | 424 kts | 201° |
| 2026-05-05 09:56 | 20.40724 | 73.31122 | 25959 ft | 419 kts | 201° |
| 2026-05-05 09:56 | 20.38021 | 73.30225 | 25498 ft | 401 kts | 201° |
| 2026-05-05 09:57 | 20.35372 | 73.29341 | 25099 ft | 398 kts | 201° |
| 2026-05-05 09:57 | 20.32723 | 73.28450 | 24665 ft | 406 kts | 201° |
| 2026-05-05 09:57 | 20.30018 | 73.27548 | 24231 ft | 406 kts | 201° |
| 2026-05-05 09:57 | 20.27304 | 73.26649 | 23797 ft | 405 kts | 201° |
| 2026-05-05 09:58 | 20.24626 | 73.25759 | 23335 ft | 405 kts | 201° |
| 2026-05-05 09:58 | 20.21931 | 73.24882 | 22875 ft | 403 kts | 200° |
| 2026-05-05 09:58 | 20.19265 | 73.24059 | 22447 ft | 400 kts | 199° |
| 2026-05-05 09:58 | 20.16608 | 73.23236 | 22022 ft | 397 kts | 200° |
| 2026-05-05 09:59 | 20.13965 | 73.22392 | 21596 ft | 393 kts | 200° |
| 2026-05-05 09:59 | 20.11349 | 73.21556 | 21182 ft | 390 kts | 199° |
| 2026-05-05 09:59 | 20.08779 | 73.20747 | 20774 ft | 386 kts | 199° |
| 2026-05-05 09:59 | 20.06203 | 73.19940 | 20359 ft | 383 kts | 199° |
| 2026-05-05 10:00 | 20.03596 | 73.19346 | 19866 ft | 384 kts | 187° |
| 2026-05-05 10:00 | 20.00911 | 73.19120 | 19293 ft | 387 kts | 186° |
| 2026-05-05 10:00 | 19.98222 | 73.18918 | 18793 ft | 387 kts | 186° |
| 2026-05-05 10:00 | 19.95544 | 73.18695 | 18273 ft | 387 kts | 187° |
| 2026-05-05 10:01 | 19.92847 | 73.18455 | 17713 ft | 386 kts | 186° |
| 2026-05-05 10:01 | 19.91067 | 73.18301 | 17384 ft | 384 kts | 186° |
| 2026-05-05 10:01 | 19.87591 | 73.18014 | 16698 ft | 364 kts | 186° |
| 2026-05-05 10:01 | 19.85906 | 73.17874 | 16370 ft | 352 kts | 186° |
| 2026-05-05 10:02 | 19.83531 | 73.17670 | 15913 ft | 345 kts | 186° |
| 2026-05-05 10:02 | 19.81116 | 73.17462 | 15472 ft | 350 kts | 186° |
| 2026-05-05 10:02 | 19.78687 | 73.17256 | 15007 ft | 348 kts | 186° |
| 2026-05-05 10:02 | 19.76273 | 73.17054 | 14545 ft | 346 kts | 186° |
| 2026-05-05 10:03 | 19.73876 | 73.16853 | 14095 ft | 344 kts | 186° |
| 2026-05-05 10:03 | 19.71510 | 73.16652 | 13626 ft | 342 kts | 185° |
| 2026-05-05 10:03 | 19.69157 | 73.16453 | 13278 ft | 335 kts | 185° |
| 2026-05-05 10:03 | 19.66840 | 73.16259 | 12855 ft | 331 kts | 185° |
| 2026-05-05 10:04 | 19.64554 | 73.16065 | 12417 ft | 328 kts | 185° |
| 2026-05-05 10:04 | 19.62286 | 73.15873 | 11993 ft | 324 kts | 185° |
| 2026-05-05 10:04 | 19.60044 | 73.15684 | 11560 ft | 321 kts | 185° |
| 2026-05-05 10:04 | 19.57845 | 73.15499 | 11137 ft | 318 kts | 185° |
| 2026-05-05 10:05 | 19.55640 | 73.15313 | 10712 ft | 314 kts | 185° |
| 2026-05-05 10:05 | 19.53503 | 73.15132 | 10306 ft | 304 kts | 185° |
| 2026-05-05 10:05 | 19.51413 | 73.14986 | 9994 ft | 301 kts | 180° |
| 2026-05-05 10:05 | 19.49366 | 73.14983 | 9950 ft | 285 kts | 181° |
| 2026-05-05 10:06 | 19.47420 | 73.14900 | 9922 ft | 275 kts | 182° |
| 2026-05-05 10:06 | 19.45524 | 73.14836 | 9894 ft | 272 kts | 181° |
| 2026-05-05 10:06 | 19.43664 | 73.14802 | 9924 ft | 255 kts | 181° |
| 2026-05-05 10:06 | 19.41931 | 73.14769 | 9931 ft | 245 kts | 181° |
| 2026-05-05 10:07 | 19.40237 | 73.14729 | 9935 ft | 242 kts | 181° |
| 2026-05-05 10:07 | 19.38581 | 73.14689 | 9932 ft | 235 kts | 181° |
| 2026-05-05 10:07 | 19.36900 | 73.14651 | 9853 ft | 251 kts | 181° |
| 2026-05-05 10:07 | 19.35099 | 73.14610 | 9833 ft | 261 kts | 181° |
| 2026-05-05 10:08 | 19.33271 | 73.14567 | 9705 ft | 259 kts | 181° |
| 2026-05-05 10:08 | 19.31487 | 73.14526 | 9458 ft | 260 kts | 181° |
| 2026-05-05 10:08 | 19.29671 | 73.14485 | 9177 ft | 261 kts | 181° |
| 2026-05-05 10:08 | 19.27850 | 73.14443 | 8890 ft | 261 kts | 181° |
| 2026-05-05 10:09 | 19.26027 | 73.14402 | 8598 ft | 261 kts | 181° |
| 2026-05-05 10:09 | 19.24219 | 73.14541 | 8278 ft | 262 kts | 161° |
| 2026-05-05 10:09 | 19.22634 | 73.15485 | 8049 ft | 260 kts | 140° |
| 2026-05-05 10:09 | 19.21608 | 73.16986 | 7770 ft | 254 kts | 115° |
| 2026-05-05 10:10 | 19.21260 | 73.18799 | 7539 ft | 250 kts | 92° |
| 2026-05-05 10:10 | 19.21278 | 73.20628 | 7355 ft | 249 kts | 91° |
| 2026-05-05 10:10 | 19.21300 | 73.22448 | 7142 ft | 248 kts | 91° |
| 2026-05-05 10:10 | 19.21316 | 73.24275 | 6936 ft | 247 kts | 92° |
| 2026-05-05 10:11 | 19.20952 | 73.26032 | 6682 ft | 244 kts | 120° |
| 2026-05-05 10:11 | 19.19840 | 73.27341 | 6463 ft | 240 kts | 149° |
| 2026-05-05 10:11 | 19.18299 | 73.27904 | 6262 ft | 237 kts | 177° |
| 2026-05-05 10:11 | 19.16693 | 73.27618 | 6052 ft | 234 kts | 205° |
| 2026-05-05 10:12 | 19.15428 | 73.26572 | 5833 ft | 232 kts | 233° |
| 2026-05-05 10:12 | 19.14752 | 73.25062 | 5661 ft | 230 kts | 252° |
| 2026-05-05 10:12 | 19.14269 | 73.23455 | 5451 ft | 226 kts | 252° |
| 2026-05-05 10:12 | 19.13802 | 73.21899 | 5259 ft | 215 kts | 252° |
| 2026-05-05 10:13 | 19.13353 | 73.20428 | 5063 ft | 208 kts | 252° |
| 2026-05-05 10:13 | 19.12910 | 73.18980 | 4875 ft | 205 kts | 252° |
| 2026-05-05 10:13 | 19.12467 | 73.17526 | 4650 ft | 212 kts | 252° |
| 2026-05-05 10:13 | 19.12013 | 73.16041 | 4392 ft | 215 kts | 252° |
| 2026-05-05 10:14 | 19.11557 | 73.14547 | 4055 ft | 212 kts | 253° |
| 2026-05-05 10:14 | 19.11104 | 73.13066 | 3730 ft | 210 kts | 253° |
| 2026-05-05 10:14 | 19.10662 | 73.11612 | 3403 ft | 208 kts | 253° |
| 2026-05-05 10:14 | 19.10219 | 73.10165 | 3073 ft | 205 kts | 253° |
| 2026-05-05 10:15 | 19.09788 | 73.08757 | 2893 ft | 195 kts | 253° |
| 2026-05-05 10:15 | 19.09372 | 73.07452 | 2879 ft | 181 kts | 255° |
| 2026-05-05 10:15 | 19.09198 | 73.06134 | 2876 ft | 181 kts | 269° |
| 2026-05-05 10:15 | 19.09153 | 73.04821 | 2875 ft | 178 kts | 269° |
| 2026-05-05 10:16 | 19.09121 | 73.03514 | 2822 ft | 185 kts | 269° |
| 2026-05-05 10:16 | 19.09101 | 73.02166 | 2606 ft | 179 kts | 269° |
| 2026-05-05 10:16 | 19.09082 | 73.00866 | 2388 ft | 175 kts | 269° |
| 2026-05-05 10:16 | 19.09062 | 72.99586 | 2158 ft | 173 kts | 270° |
| 2026-05-05 10:17 | 19.09046 | 72.98294 | 1934 ft | 176 kts | 269° |
| 2026-05-05 10:17 | 19.09025 | 72.97032 | 1716 ft | 170 kts | 270° |
| 2026-05-05 10:17 | 19.09010 | 72.95811 | 1497 ft | 158 kts | 270° |
| 2026-05-05 10:17 | 19.08993 | 72.94714 | 1284 ft | 140 kts | 269° |
| 2026-05-05 10:18 | 19.08976 | 72.93708 | 1103 ft | 133 kts | 269° |
| 2026-05-05 10:18 | 19.08963 | 72.92711 | 956 ft | 141 kts | 269° |
| 2026-05-05 10:18 | 19.08950 | 72.91691 | 796 ft | 138 kts | 269° |
| 2026-05-05 10:18 | 19.08932 | 72.90667 | 627 ft | 140 kts | 268° |
| 2026-05-05 10:19 | 19.08917 | 72.89642 | 462 ft | 137 kts | 266° |
| 2026-05-05 10:19 | 19.08914 | 72.88641 | 257 ft | 136 kts | 268° |
| 2026-05-05 10:19 | 19.08891 | 72.87619 | 104 ft | 139 kts | 272° |
| 2026-05-05 10:19 | 19.08871 | 72.86685 | 50 ft | 109 kts | 269° |
| 2026-05-05 10:20 | 19.08865 | 72.86055 | 52 ft | 53 kts | 274° |
| 2026-05-05 10:20 | 19.08942 | 72.85851 | 48 ft | 22 kts | 308° |
| 2026-05-05 10:20 | 19.09003 | 72.85819 | 47 ft | 4 kts | 13° |
| 2026-05-05 10:20 | 19.09018 | 72.85835 | 48 ft | 2 kts | 54° |
| 2026-05-05 10:21 | 19.09022 | 72.85850 | 48 ft | 3 kts | 78° |
| 2026-05-05 10:21 | 19.09026 | 72.85890 | 49 ft | 8 kts | 88° |
| 2026-05-05 10:21 | 19.09027 | 72.85964 | 54 ft | 13 kts | 90° |
| 2026-05-05 10:21 | 19.09030 | 72.86078 | 54 ft | 18 kts | 87° |
| 2026-05-05 10:22 | 19.09036 | 72.86229 | 54 ft | 22 kts | 91° |
| 2026-05-05 10:22 | 19.09038 | 72.86393 | 49 ft | 22 kts | 89° |
| 2026-05-05 10:22 | 19.09041 | 72.86559 | 49 ft | 22 kts | 89° |
| 2026-05-05 10:22 | 19.09043 | 72.86724 | 56 ft | 22 kts | 89° |
| 2026-05-05 10:23 | 19.09044 | 72.86887 | 55 ft | 23 kts | 90° |
| 2026-05-05 10:23 | 19.09044 | 72.87054 | 55 ft | 23 kts | 90° |
| 2026-05-05 10:23 | 19.09048 | 72.87224 | 51 ft | 23 kts | 88° |
| 2026-05-05 10:23 | 19.09053 | 72.87396 | 50 ft | 24 kts | 88° |
| 2026-05-05 10:24 | 19.09054 | 72.87570 | 49 ft | 24 kts | 94° |
| 2026-05-05 10:24 | 19.09054 | 72.87740 | 49 ft | 18 kts | 89° |
| 2026-05-05 10:24 | 19.09091 | 72.87802 | 50 ft | 7 kts | 9° |
| 2026-05-05 10:24 | 19.09128 | 72.87788 | 47 ft | 5 kts | 333° |
| 2026-05-05 10:25 | 19.09163 | 72.87768 | 48 ft | 6 kts | 331° |
| 2026-05-05 10:25 | 19.09191 | 72.87761 | 51 ft | 3 kts | 353° |
| 2026-05-05 10:25 | 19.09225 | 72.87758 | 47 ft | 7 kts | 357° |
| 2026-05-05 10:25 | 19.09288 | 72.87759 | 50 ft | 10 kts | 359° |
| 2026-05-05 10:26 | 19.09348 | 72.87733 | 49 ft | 8 kts | 329° |
| 2026-05-05 10:26 | 19.09398 | 72.87707 | 48 ft | 8 kts | 340° |
| 2026-05-05 10:26 | 19.09430 | 72.87696 | 49 ft | 0 kts | 342° |
| 2026-05-05 10:26 | 19.09432 | 72.87696 | 49 ft | 0 kts | 342° |